Time;durP1;ratioP1;P1;durP2;ratioP2;P2;SDS_P1;SDS_P2;PMS_P1;PMS_P2;Temp;Humidity;BMP_temperature;BMP_pressure;BME280_temperature;BME280_humidity;BME280_pressure;Samples;Min_cycle;Max_cycle;Signal;HPM_P1;HPM_P2
2022/09/04 00:05:05;;;;;;;2.85;2.22;;;29.30;49.20;;;;;;10483962;28;20123;-35
2022/09/04 00:10:14;;;;;;;4.20;2.45;;;29.20;49.30;;;;;;10494050;28;20090;-34
2022/09/04 00:15:20;;;;;;;5.07;2.08;;;29.20;49.30;;;;;;10481284;28;20143;-35
2022/09/04 00:20:38;;;;;;;3.33;2.17;;;29.20;49.40;;;;;;10485540;28;20086;-35
2022/09/04 00:25:50;;;;;;;2.40;2.20;;;29.10;49.40;;;;;;10472381;28;20137;-35
2022/09/04 00:31:01;;;;;;;3.78;2.28;;;29.10;49.50;;;;;;10467819;28;20405;-35
2022/09/04 00:36:06;;;;;;;3.15;2.33;;;29.10;49.50;;;;;;10471557;28;20049;-36
2022/09/04 00:41:18;;;;;;;2.45;1.90;;;29.00;49.50;;;;;;10486652;28;20682;-35
2022/09/04 00:46:52;;;;;;;3.40;1.92;;;29.00;49.60;;;;;;10484300;28;20132;-35
2022/09/04 00:52:01;;;;;;;3.03;2.10;;;29.00;49.70;;;;;;10485800;28;20093;-36
2022/09/04 00:57:43;;;;;;;3.35;2.03;;;28.90;49.70;;;;;;10486394;28;20072;-35
2022/09/04 01:02:52;;;;;;;;;;;28.90;49.80;;;;;;10480319;28;20072;-35
2022/09/04 01:08:06;;;;;;;2.40;2.20;;;28.80;49.80;;;;;;10485712;28;19927;-35
2022/09/04 01:13:12;;;;;;;3.63;2.10;;;28.80;50.00;;;;;;10493997;28;20063;-35
2022/09/04 01:18:18;;;;;;;2.65;2.40;;;28.80;50.50;;;;;;10494853;28;20118;-35
2022/09/04 01:23:41;;;;;;;2.45;2.10;;;28.70;49.90;;;;;;10489461;28;20441;-35
2022/09/04 01:28:58;;;;;;;3.53;2.55;;;28.70;50.00;;;;;;10491673;28;20057;-34
2022/09/04 01:34:13;;;;;;;2.65;2.38;;;28.90;50.20;;;;;;10493489;28;20052;-34
2022/09/04 01:39:18;;;;;;;2.67;2.47;;;28.60;50.00;;;;;;10498371;28;20056;-35
2022/09/04 01:44:22;;;;;;;3.22;2.40;;;28.60;50.10;;;;;;10494418;28;20140;-34
2022/09/04 01:49:31;;;;;;;3.80;2.50;;;28.60;50.20;;;;;;10498949;28;20067;-34
2022/09/04 01:54:46;;;;;;;3.45;2.25;;;28.50;50.20;;;;;;10509258;28;20059;-35
2022/09/04 02:00:00;;;;;;;3.70;2.55;;;28.50;50.40;;;;;;10500642;28;20106;-33
2022/09/04 02:05:11;;;;;;;2.70;2.45;;;28.50;50.20;;;;;;10498288;28;20048;-35
2022/09/04 02:10:22;;;;;;;3.30;2.30;;;28.50;50.30;;;;;;10502162;28;20219;-34
2022/09/04 02:15:32;;;;;;;6.50;2.10;;;28.40;50.40;;;;;;10497996;28;20052;-34
2022/09/04 02:20:34;;;;;;;4.43;2.33;;;28.40;50.50;;;;;;10491718;28;20045;-35
2022/09/04 02:25:42;;;;;;;2.88;2.58;;;28.40;50.60;;;;;;10480668;28;20448;-35
2022/09/04 02:30:50;;;;;;;2.88;2.25;;;28.30;50.70;;;;;;10493073;28;20147;-35
2022/09/04 02:35:58;;;;;;;4.25;2.55;;;28.30;50.90;;;;;;10480856;28;20131;-35
2022/09/04 02:41:09;;;;;;;4.10;2.58;;;28.30;51.00;;;;;;10494975;28;20132;-35
2022/09/04 02:46:18;;;;;;;5.60;2.30;;;28.20;50.90;;;;;;10492172;28;20493;-34
2022/09/04 02:51:35;;;;;;;2.67;2.45;;;28.20;51.10;;;;;;10482456;28;20140;-34
2022/09/04 02:56:46;;;;;;;3.42;2.55;;;28.10;51.00;;;;;;10471001;28;20048;-35
2022/09/04 03:01:56;;;;;;;3.78;2.67;;;28.20;51.20;;;;;;10485337;28;20053;-35
2022/09/04 03:07:05;;;;;;;2.30;2.10;;;28.10;51.20;;;;;;10493937;28;20067;-35
2022/09/04 03:12:25;;;;;;;2.80;2.08;;;28.10;51.20;;;;;;10501119;28;20107;-34
2022/09/04 03:17:37;;;;;;;3.08;2.10;;;28.10;51.20;;;;;;10490641;28;20131;-34
2022/09/04 03:22:44;;;;;;;2.95;2.50;;;28.10;51.20;;;;;;10480038;28;20047;-35
2022/09/04 03:27:46;;;;;;;7.30;2.70;;;28.10;51.20;;;;;;10478638;28;20146;-35
2022/09/04 03:32:57;;;;;;;2.75;2.40;;;28.00;51.20;;;;;;10476427;28;20063;-35
2022/09/04 03:38:11;;;;;;;4.50;2.50;;;28.00;51.20;;;;;;10488981;28;20123;-32
2022/09/04 03:43:37;;;;;;;4.25;2.05;;;27.90;51.30;;;;;;10482621;28;20135;-35
2022/09/04 03:48:57;;;;;;;3.13;2.40;;;27.90;51.30;;;;;;10485662;28;20322;-35
2022/09/04 03:54:11;;;;;;;4.45;2.45;;;27.90;51.40;;;;;;10484254;28;20132;-35
2022/09/04 03:59:24;;;;;;;4.68;2.15;;;27.90;51.40;;;;;;10480025;28;20128;-34
2022/09/04 04:04:58;;;;;;;2.63;2.42;;;27.80;51.40;;;;;;10488366;28;20044;-34
2022/09/04 04:10:12;;;;;;;3.20;2.60;;;27.80;51.50;;;;;;10503092;28;20079;-34
2022/09/04 04:15:27;;;;;;;10.20;2.70;;;27.80;51.50;;;;;;10495523;28;20048;-34
2022/09/04 04:20:38;;;;;;;2.90;2.63;;;28.60;52.00;;;;;;10476520;28;20051;-35
2022/09/04 04:25:50;;;;;;;4.28;2.35;;;28.80;52.30;;;;;;10491490;28;20110;-34
2022/09/04 04:30:54;;;;;;;5.85;2.90;;;27.70;51.60;;;;;;10469162;28;20553;-33
2022/09/04 04:36:05;;;;;;;4.30;2.13;;;27.70;51.60;;;;;;10474349;28;20045;-34
2022/09/04 04:41:16;;;;;;;;;;;27.70;51.70;;;;;;10490574;28;20086;-34
2022/09/04 04:46:27;;;;;;;4.90;2.70;;;27.70;51.80;;;;;;10477524;28;19978;-35
2022/09/04 04:51:58;;;;;;;3.00;2.47;;;28.80;52.60;;;;;;10485185;28;20404;-33
2022/09/04 04:57:09;;;;;;;5.38;2.63;;;27.60;51.80;;;;;;10489218;28;20175;-35
2022/09/04 05:02:24;;;;;;;4.68;2.85;;;27.60;51.90;;;;;;10494671;28;20052;-35
2022/09/04 05:07:36;;;;;;;2.53;2.03;;;27.50;51.80;;;;;;10481524;28;20127;-35
2022/09/04 05:12:54;;;;;;;2.53;2.33;;;27.50;51.90;;;;;;10486609;28;20084;-36
2022/09/04 05:18:03;;;;;;;4.05;1.98;;;27.50;51.90;;;;;;10486963;28;20432;-35
2022/09/04 05:23:28;;;;;;;3.50;2.35;;;27.50;51.90;;;;;;10489736;28;20053;-35
2022/09/04 05:28:39;;;;;;;6.63;2.42;;;27.50;51.90;;;;;;10489185;28;20117;-35
2022/09/04 05:33:49;;;;;;;2.55;2.28;;;27.40;51.90;;;;;;10467146;28;20080;-35
2022/09/04 05:39:02;;;;;;;2.45;2.20;;;27.40;51.90;;;;;;10468519;28;20040;-31
2022/09/04 05:44:18;;;;;;;3.05;2.35;;;27.40;52.00;;;;;;10484811;28;20080;-34
2022/09/04 05:49:34;;;;;;;3.30;2.40;;;27.40;51.90;;;;;;10483205;28;20071;-33
2022/09/04 05:54:59;;;;;;;3.03;2.20;;;27.40;51.80;;;;;;10492195;28;20048;-35
2022/09/04 06:00:08;;;;;;;6.35;2.58;;;27.50;51.90;;;;;;10465650;28;20225;-33
2022/09/04 06:05:22;;;;;;;2.88;2.58;;;27.50;51.90;;;;;;10472732;28;20077;-34
2022/09/04 06:10:34;;;;;;;4.82;3.70;;;27.90;52.10;;;;;;10464334;28;20091;-37
2022/09/04 06:15:51;;;;;;;4.05;3.10;;;27.50;51.70;;;;;;10473389;28;20079;-34
2022/09/04 06:21:08;;;;;;;4.20;3.20;;;27.50;51.80;;;;;;10485503;28;20084;-34
2022/09/04 06:26:33;;;;;;;11.88;3.50;;;27.50;51.80;;;;;;10487437;28;20132;-35
2022/09/04 06:32:06;;;;;;;11.82;3.65;;;27.60;52.00;;;;;;10482290;28;20131;-35
2022/09/04 06:37:19;;;;;;;5.80;4.25;;;27.60;52.20;;;;;;10487758;28;20071;-34
2022/09/04 06:42:33;;;;;;;6.15;3.67;;;27.60;52.20;;;;;;10482266;28;20465;-36
2022/09/04 06:47:49;;;;;;;4.65;4.00;;;27.60;52.30;;;;;;10474207;28;20053;-34
2022/09/04 06:53:04;;;;;;;14.52;7.18;;;27.50;52.50;;;;;;10489882;28;20088;-35
2022/09/04 06:58:19;;;;;;;18.30;8.70;;;27.60;52.60;;;;;;10493990;28;20076;-34
2022/09/04 07:03:34;;;;;;;12.80;7.90;;;27.60;52.70;;;;;;10490301;28;20136;-34
2022/09/04 07:08:51;;;;;;;19.15;8.07;;;27.60;53.40;;;;;;10490487;28;20778;-35
2022/09/04 07:14:18;;;;;;;12.45;8.02;;;27.60;53.00;;;;;;10477953;28;20149;-36
2022/09/04 07:19:57;;;;;;;10.20;7.43;;;27.60;53.20;;;;;;10479631;28;20106;-35
2022/09/04 07:25:11;;;;;;;14.30;8.85;;;27.60;53.20;;;;;;10367449;28;20083;-34
2022/09/04 07:30:16;;;;;;;17.20;7.90;;;27.60;53.30;;;;;;10481970;28;20135;-36
2022/09/04 07:35:24;;;;;;;11.82;8.40;;;27.60;53.00;;;;;;10507034;28;20056;-34
2022/09/04 07:40:32;;;;;;;17.77;10.10;;;27.60;52.70;;;;;;10465579;28;20477;-34
2022/09/04 07:45:44;;;;;;;21.00;10.05;;;27.60;52.40;;;;;;10490093;28;20140;-34
2022/09/04 07:50:56;;;;;;;;;;;27.60;52.20;;;;;;10487657;28;20041;-35
2022/09/04 07:56:03;;;;;;;20.55;10.20;;;27.60;52.10;;;;;;10485213;28;19929;-34
2022/09/04 08:01:25;;;;;;;17.42;10.05;;;27.70;51.90;;;;;;10469018;28;20044;-35
2022/09/04 08:06:34;;;;;;;16.45;10.15;;;27.70;51.80;;;;;;10488824;28;20127;-35
2022/09/04 08:12:00;;;;;;;16.27;9.32;;;27.60;51.90;;;;;;10482529;28;20098;-36
2022/09/04 08:17:41;;;;;;;15.77;10.18;;;27.70;51.90;;;;;;10474271;28;20488;-35
2022/09/04 08:23:02;;;;;;;14.70;9.48;;;27.70;52.00;;;;;;10488829;28;20481;-35
2022/09/04 08:28:17;;;;;;;17.15;9.63;;;27.70;51.90;;;;;;10485470;28;20462;-35
2022/09/04 08:33:47;;;;;;;17.83;10.98;;;27.80;52.00;;;;;;10474527;28;20974;-34
2022/09/04 08:39:00;;;;;;;17.13;8.90;;;27.70;52.10;;;;;;10483974;28;20132;-35
2022/09/04 08:44:38;;;;;;;13.65;7.57;;;28.20;52.40;;;;;;10471581;28;20131;-34
2022/09/04 08:50:06;;;;;;;13.95;8.07;;;27.80;51.90;;;;;;10469399;28;20152;-35
2022/09/04 08:55:46;;;;;;;13.48;7.65;;;27.70;52.30;;;;;;10474480;28;20560;-35
2022/09/04 09:01:07;;;;;;;10.40;6.57;;;27.80;52.30;;;;;;10482906;28;20072;-36
2022/09/04 09:06:31;;;;;;;12.67;6.70;;;27.90;52.30;;;;;;10478839;28;20072;-35
2022/09/04 09:12:15;;;;;;;9.68;5.97;;;27.80;52.60;;;;;;10485543;28;20053;-35
2022/09/04 09:17:36;;;;;;;9.68;5.65;;;27.90;52.30;;;;;;10483337;28;20055;-35
2022/09/04 09:23:09;;;;;;;9.30;6.45;;;28.00;52.40;;;;;;10471069;28;20049;-36
2022/09/04 09:29:04;;;;;;;6.05;4.43;;;28.00;52.50;;;;;;10489737;28;20120;-35
2022/09/04 09:34:49;;;;;;;8.75;5.03;;;28.10;52.20;;;;;;10481184;28;20504;-34
2022/09/04 09:40:25;;;;;;;6.93;5.07;;;28.10;52.20;;;;;;10484571;28;20142;-35
2022/09/04 09:45:57;;;;;;;7.60;4.80;;;28.10;52.20;;;;;;10490773;28;20436;-35
2022/09/04 09:51:32;;;;;;;6.57;4.47;;;28.20;52.20;;;;;;10490038;28;20088;-35
2022/09/04 09:57:09;;;;;;;5.35;4.28;;;28.10;51.90;;;;;;10498215;28;20048;-35
2022/09/04 10:02:56;;;;;;;4.72;3.53;;;28.20;52.30;;;;;;10455976;28;20076;-35
2022/09/04 10:08:18;;;;;;;5.10;3.67;;;28.20;52.00;;;;;;10484001;28;20044;-33
2022/09/04 10:13:42;;;;;;;4.10;3.70;;;28.30;51.90;;;;;;10488602;28;20076;-35
2022/09/04 10:19:15;;;;;;;3.80;3.08;;;28.40;51.60;;;;;;10480105;28;20553;-35
2022/09/04 10:24:52;;;;;;;4.93;3.63;;;28.30;51.80;;;;;;10481788;28;20048;-34
2022/09/04 10:30:05;;;;;;;11.02;8.13;;;28.30;51.80;;;;;;10467126;28;20048;-35
2022/09/04 10:35:25;;;;;;;11.10;6.00;;;28.30;52.00;;;;;;10482742;28;20569;-35
2022/09/04 10:40:38;;;;;;;5.25;3.33;;;28.30;52.00;;;;;;10482451;28;20060;-34
2022/09/04 10:45:45;;;;;;;16.70;8.77;;;28.30;52.10;;;;;;10492872;28;20114;-35
2022/09/04 10:51:19;;;;;;;11.93;7.68;;;28.30;53.00;;;;;;10494276;28;20040;-35
2022/09/04 10:56:28;;;;;;;12.60;8.73;;;28.00;55.40;;;;;;10493234;28;20503;-36
2022/09/04 11:02:02;;;;;;;4.80;3.53;;;27.90;54.10;;;;;;10477131;28;20095;-35
2022/09/04 11:07:35;;;;;;;12.80;8.25;;;28.40;52.20;;;;;;10483557;28;20051;-34
2022/09/04 11:12:55;;;;;;;18.30;11.85;;;28.50;56.90;;;;;;10477684;28;20446;-36
2022/09/04 11:18:26;;;;;;;21.77;13.77;;;27.70;54.50;;;;;;10489425;28;20198;-34
2022/09/04 11:23:49;;;;;;;;;;;27.60;55.60;;;;;;10465810;28;20045;-34
2022/09/04 11:29:26;;;;;;;18.88;12.05;;;27.70;55.70;;;;;;10474461;28;20383;-34
2022/09/04 11:34:58;;;;;;;18.38;11.68;;;27.30;56.30;;;;;;10365864;28;20166;-34
2022/09/04 11:40:27;;;;;;;8.45;5.95;;;27.60;59.90;;;;;;10474149;28;21556;-34
2022/09/04 11:46:03;;;;;;;20.50;12.30;;;26.80;57.80;;;;;;10473280;28;20045;-34
2022/09/04 11:51:21;;;;;;;7.95;4.88;;;26.90;58.30;;;;;;10485883;28;20565;-34
2022/09/04 11:57:04;;;;;;;8.57;6.18;;;28.00;53.50;;;;;;10481602;28;20088;-35
2022/09/04 12:02:40;;;;;;;12.38;7.95;;;27.70;55.10;;;;;;10380594;28;20190;-35
2022/09/04 12:08:02;;;;;;;10.30;5.20;;;27.40;57.10;;;;;;10474870;28;20070;-36
2022/09/04 12:13:25;;;;;;;19.92;14.95;;;28.20;53.20;;;;;;10499376;28;20101;-35
2022/09/04 12:18:59;;;;;;;12.82;10.02;;;26.80;61.40;;;;;;10486022;28;20477;-35
2022/09/04 12:24:33;;;;;;;19.30;12.23;;;27.50;57.60;;;;;;10481607;28;20135;-34
2022/09/04 12:30:06;;;;;;;12.05;8.65;;;27.60;58.90;;;;;;10474189;28;20128;-36
2022/09/04 12:35:32;;;;;;;8.95;5.28;;;27.60;55.30;;;;;;10472050;28;20462;-35
2022/09/04 12:40:45;;;;;;;14.52;9.52;;;28.30;55.90;;;;;;10478394;28;21390;-35
2022/09/04 12:46:02;;;;;;;14.77;9.00;;;29.40;55.60;;;;;;10478262;28;20122;-36
2022/09/04 12:51:10;;;;;;;12.75;9.60;;;27.80;56.50;;;;;;10478745;28;20161;-35
2022/09/04 12:56:17;;;;;;;10.85;8.73;;;27.70;57.00;;;;;;10485461;28;20105;-34
2022/09/04 13:01:30;;;;;;;5.13;3.65;;;28.30;54.50;;;;;;10482847;28;20484;-34
2022/09/04 13:06:41;;;;;;;12.20;7.57;;;28.70;55.80;;;;;;10484675;28;20095;-35
2022/09/04 13:11:54;;;;;;;9.85;5.63;;;27.90;54.70;;;;;;10498947;28;20126;-36
2022/09/04 13:17:07;;;;;;;4.82;3.55;;;28.50;54.40;;;;;;10480093;28;20083;-35
2022/09/04 13:22:27;;;;;;;8.95;5.32;;;29.00;54.90;;;;;;10462769;28;20131;-35
2022/09/04 13:27:47;;;;;;;9.13;6.53;;;28.50;54.90;;;;;;10484593;28;20094;-35
2022/09/04 13:33:15;;;;;;;3.30;2.63;;;29.20;54.60;;;;;;10484843;28;20052;-36
2022/09/04 13:38:43;;;;;;;12.77;7.75;;;29.20;54.90;;;;;;10478907;28;20044;-35
2022/09/04 13:44:03;;;;;;;12.43;7.65;;;29.50;55.00;;;;;;10478636;28;20516;-34
2022/09/04 13:49:11;;;;;;;9.25;4.82;;;29.90;53.60;;;;;;10495865;28;20056;-36
2022/09/04 13:54:19;;;;;;;9.88;5.88;;;30.20;51.40;;;;;;10461362;28;20129;-34
2022/09/04 13:59:23;;;;;;;7.18;5.82;;;30.20;51.90;;;;;;10465303;28;20068;-35
2022/09/04 14:04:30;;;;;;;3.15;2.72;;;29.70;52.50;;;;;;10478985;28;20073;-35
2022/09/04 14:09:36;;;;;;;7.68;5.13;;;30.20;53.20;;;;;;10471449;28;20041;-35
2022/09/04 14:15:10;;;;;;;6.55;4.20;;;30.30;52.10;;;;;;10477003;28;20129;-35
2022/09/04 14:20:18;;;;;;;5.93;3.60;;;30.90;50.60;;;;;;10489385;28;20129;-35
2022/09/04 14:25:29;;;;;;;2.30;1.70;;;30.60;51.70;;;;;;10475842;28;20055;-35
2022/09/04 14:30:39;;;;;;;5.70;4.13;;;30.70;50.90;;;;;;10479556;28;20473;-34
2022/09/04 14:35:54;;;;;;;9.30;4.63;;;31.20;50.30;;;;;;10477007;28;20056;-35
2022/09/04 14:41:10;;;;;;;5.30;2.15;;;31.30;50.00;;;;;;10488311;28;20045;-36
2022/09/04 14:46:19;;;;;;;7.43;2.78;;;31.20;50.30;;;;;;10473615;28;20488;-35
2022/09/04 14:51:35;;;;;;;2.53;1.80;;;31.50;50.90;;;;;;10474458;28;20508;-36
2022/09/04 14:56:44;;;;;;;3.08;1.90;;;32.00;51.00;;;;;;10476320;28;20558;-36
2022/09/04 15:02:04;;;;;;;6.60;4.32;;;31.10;50.30;;;;;;10488328;28;20094;-34
2022/09/04 15:07:28;;;;;;;3.42;2.47;;;30.90;51.30;;;;;;10497397;28;20076;-34
2022/09/04 15:12:35;;;;;;;2.67;2.30;;;31.20;50.30;;;;;;10479083;28;20127;-35
2022/09/04 15:17:43;;;;;;;3.97;2.38;;;31.80;50.20;;;;;;10492877;28;20075;-36
2022/09/04 15:22:50;;;;;;;2.53;1.90;;;31.90;49.70;;;;;;10484317;28;20049;-36
2022/09/04 15:27:59;;;;;;;3.30;2.25;;;31.70;49.70;;;;;;10476887;28;20099;-33
2022/09/04 15:33:07;;;;;;;1.50;1.40;;;31.80;49.70;;;;;;10469855;28;20053;-34
2022/09/04 15:38:19;;;;;;;2.50;1.88;;;31.80;50.20;;;;;;10474395;28;20053;-34
2022/09/04 15:43:26;;;;;;;2.60;1.70;;;31.90;49.90;;;;;;10465601;28;20048;-35
2022/09/04 15:48:42;;;;;;;6.20;3.78;;;32.00;49.50;;;;;;10461618;28;20091;-33
2022/09/04 15:53:51;;;;;;;2.08;1.58;;;32.00;49.70;;;;;;10463468;28;20076;-36
2022/09/04 15:59:00;;;;;;;2.03;1.88;;;32.10;49.60;;;;;;10455488;28;20868;-35
2022/09/04 16:04:11;;;;;;;1.50;1.40;;;31.80;50.90;;;;;;10476122;28;20051;-35
2022/09/04 16:09:22;;;;;;;2.55;1.98;;;31.90;50.20;;;;;;10475781;28;20055;-34
2022/09/04 16:14:30;;;;;;;2.20;2.00;;;32.60;49.30;;;;;;10481837;28;20779;-35
2022/09/04 16:19:38;;;;;;;2.97;2.30;;;32.50;49.20;;;;;;10474517;28;20135;-36
2022/09/04 16:24:45;;;;;;;2.30;2.10;;;32.70;49.00;;;;;;10474742;28;20044;-35
2022/09/04 16:29:50;;;;;;;1.65;1.55;;;33.00;49.40;;;;;;10479489;28;20045;-36
2022/09/04 16:34:55;;;;;;;2.88;2.50;;;32.90;49.20;;;;;;10480374;28;20075;-35
2022/09/04 16:40:12;;;;;;;1.90;1.70;;;32.90;49.50;;;;;;10471004;28;20095;-33
2022/09/04 16:45:19;;;;;;;4.10;2.50;;;32.60;49.20;;;;;;10478391;28;20834;-35
2022/09/04 16:50:27;;;;;;;2.25;1.73;;;32.80;49.20;;;;;;10480577;28;20040;-35
2022/09/04 16:55:38;;;;;;;2.70;2.20;;;32.80;49.30;;;;;;10478591;28;20152;-34
2022/09/04 17:00:59;;;;;;;1.90;1.75;;;33.30;50.00;;;;;;10479764;28;20068;-34
2022/09/04 17:06:12;;;;;;;2.33;1.92;;;32.50;49.20;;;;;;10480038;28;20848;-35
2022/09/04 17:11:21;;;;;;;2.30;2.10;;;32.40;49.10;;;;;;10466043;28;20041;-36
2022/09/04 17:16:39;;;;;;;2.90;1.95;;;32.30;49.00;;;;;;10482743;28;20044;-36
2022/09/04 17:27:21;;;;;;;2.58;1.95;;;32.20;48.80;;;;;;10469930;28;20048;-35
2022/09/04 17:32:28;;;;;;;4.88;2.20;;;31.40;48.10;;;;;;10471726;28;20052;-35
2022/09/04 17:37:37;;;;;;;4.93;2.50;;;32.20;48.70;;;;;;10464982;28;20440;-35
2022/09/04 17:42:50;;;;;;;5.07;2.40;;;32.20;48.90;;;;;;10472375;28;20045;-35
2022/09/04 17:48:00;;;;;;;3.80;2.63;;;32.10;48.90;;;;;;10469126;28;20080;-35
2022/09/04 17:53:06;;;;;;;2.70;2.20;;;32.00;48.90;;;;;;10482883;28;20164;-35
2022/09/04 17:58:15;;;;;;;2.40;2.20;;;32.00;48.80;;;;;;10491700;28;20049;-35
2022/09/04 18:03:29;;;;;;;3.80;2.72;;;32.00;48.90;;;;;;10488841;28;20119;-36
2022/09/04 18:08:34;;;;;;;2.28;2.05;;;32.00;48.90;;;;;;10482986;28;20048;-36
2022/09/04 18:13:44;;;;;;;3.33;2.75;;;31.90;49.10;;;;;;10485422;28;20048;-35
2022/09/04 18:18:50;;;;;;;3.55;2.00;;;31.80;49.10;;;;;;10481290;28;20606;-37
2022/09/04 18:24:00;;;;;;;3.88;2.38;;;31.80;49.70;;;;;;10494342;28;20052;-35
2022/09/04 18:29:12;;;;;;;3.63;2.42;;;31.70;49.10;;;;;;10478066;28;20075;-35
2022/09/04 18:34:22;;;;;;;2.50;2.30;;;31.70;49.10;;;;;;10469115;28;20052;-36
2022/09/04 18:39:32;;;;;;;3.15;2.85;;;31.60;49.20;;;;;;10484636;28;20102;-36
2022/09/04 18:44:41;;;;;;;3.13;2.83;;;31.50;49.20;;;;;;10485030;28;20751;-36
2022/09/04 18:49:51;;;;;;;4.10;3.08;;;31.50;49.10;;;;;;10478299;28;21358;-36
2022/09/04 18:54:57;;;;;;;4.65;2.92;;;31.40;49.10;;;;;;10476417;28;20540;-37
2022/09/04 19:00:06;;;;;;;2.92;2.28;;;31.40;49.30;;;;;;10477437;28;20126;-36
2022/09/04 19:05:09;;;;;;;4.75;3.00;;;31.30;48.90;;;;;;10474091;28;20059;-34
2022/09/04 19:10:19;;;;;;;4.22;3.10;;;31.20;49.10;;;;;;10477183;28;20503;-35
2022/09/04 19:15:39;;;;;;;5.45;3.08;;;31.20;49.10;;;;;;10469073;28;20049;-36
2022/09/04 19:20:49;;;;;;;12.25;3.58;;;31.10;49.10;;;;;;10484924;28;20519;-36
2022/09/04 19:25:53;;;;;;;8.45;3.75;;;31.00;49.30;;;;;;10469843;28;20099;-34
2022/09/04 19:31:01;;;;;;;6.05;3.50;;;31.00;49.40;;;;;;10485261;28;20175;-36
2022/09/04 19:36:09;;;;;;;11.02;3.33;;;30.90;49.50;;;;;;10477827;28;20092;-35
2022/09/04 19:41:16;;;;;;;8.88;3.30;;;30.90;49.60;;;;;;10487012;28;20113;-36
2022/09/04 19:46:35;;;;;;;6.60;3.47;;;30.90;49.80;;;;;;10486815;28;20102;-34
2022/09/04 19:51:39;;;;;;;6.45;3.47;;;30.80;49.80;;;;;;10467394;28;20143;-35
2022/09/04 19:56:48;;;;;;;8.00;3.15;;;30.80;49.90;;;;;;10483572;28;20070;-35
2022/09/04 20:01:54;;;;;;;6.13;3.00;;;30.70;50.00;;;;;;10481960;28;20045;-34
2022/09/04 20:06:58;;;;;;;3.65;2.92;;;30.70;50.00;;;;;;10478188;28;20076;-35
2022/09/04 20:12:09;;;;;;;8.60;2.88;;;30.60;50.20;;;;;;10466329;28;20047;-35
2022/09/04 20:17:27;;;;;;;4.47;3.42;;;30.60;50.30;;;;;;10465403;28;20117;-35
2022/09/04 20:22:35;;;;;;;4.03;3.03;;;30.50;50.30;;;;;;10465604;28;20040;-35
2022/09/04 20:27:41;;;;;;;5.32;3.55;;;30.50;50.50;;;;;;10473499;28;20059;-35
2022/09/04 20:32:54;;;;;;;4.25;3.10;;;30.40;50.50;;;;;;10477303;28;20049;-36
2022/09/04 20:38:00;;;;;;;5.07;3.17;;;30.40;50.70;;;;;;10475439;28;20053;-36
2022/09/04 20:43:20;;;;;;;5.30;3.17;;;30.40;50.80;;;;;;10481081;28;20139;-34
2022/09/04 20:48:29;;;;;;;4.85;3.80;;;30.40;50.80;;;;;;10493314;28;20052;-35
2022/09/04 20:53:45;;;;;;;5.63;3.08;;;30.30;50.90;;;;;;10481952;28;20152;-31
2022/09/04 20:59:12;;;;;;;3.80;2.60;;;30.30;50.90;;;;;;10489120;28;20478;-35
2022/09/04 21:04:26;;;;;;;5.10;3.20;;;30.20;50.90;;;;;;10467232;28;20155;-37
2022/09/04 21:09:40;;;;;;;3.85;3.10;;;30.20;51.00;;;;;;10469479;28;20131;-35
2022/09/04 21:14:45;;;;;;;4.80;2.65;;;30.10;51.00;;;;;;10460958;28;20803;-35
2022/09/04 21:20:25;;;;;;;3.55;3.20;;;30.10;51.10;;;;;;10471746;28;20082;-36
2022/09/04 21:25:35;;;;;;;3.53;2.90;;;30.00;51.00;;;;;;10465217;28;20080;-35
2022/09/04 21:30:53;;;;;;;3.47;2.67;;;30.00;51.10;;;;;;10501879;28;20136;-35
2022/09/04 21:36:06;;;;;;;3.50;3.20;;;30.00;51.30;;;;;;10489498;28;20056;-34
2022/09/04 21:41:22;;;;;;;3.20;2.90;;;29.80;51.10;;;;;;10488555;28;20048;-34
2022/09/04 21:46:39;;;;;;;3.28;2.88;;;29.90;51.30;;;;;;10468682;28;20307;-35
2022/09/04 21:52:09;;;;;;;3.70;2.92;;;29.80;51.30;;;;;;10484787;28;20076;-34
2022/09/04 21:57:40;;;;;;;4.18;3.45;;;29.80;51.40;;;;;;10496656;28;20433;-34
2022/09/04 22:03:02;;;;;;;4.07;2.80;;;29.70;51.40;;;;;;10490623;28;20123;-35
2022/09/04 22:08:20;;;;;;;4.03;3.08;;;29.70;51.50;;;;;;10479478;28;20135;-34
2022/09/04 22:13:33;;;;;;;3.97;2.90;;;29.60;51.50;;;;;;10499580;28;20128;-36
2022/09/04 22:18:51;;;;;;;3.40;2.53;;;29.60;51.60;;;;;;10481662;28;20051;-35
2022/09/04 22:24:34;;;;;;;3.55;2.92;;;29.60;51.70;;;;;;10488246;28;20105;-34
2022/09/04 22:29:49;;;;;;;4.68;2.80;;;29.50;51.70;;;;;;10466565;28;20405;-34
2022/09/04 22:35:15;;;;;;;3.47;2.67;;;29.50;51.70;;;;;;10490650;28;20175;-34
2022/09/04 22:40:27;;;;;;;4.15;2.75;;;29.00;51.50;;;;;;10485142;28;20400;-35
2022/09/04 22:45:53;;;;;;;2.88;2.58;;;29.40;51.80;;;;;;10482012;28;20140;-36
2022/09/04 22:51:08;;;;;;;3.63;3.05;;;29.40;51.90;;;;;;10475223;28;20048;-36
2022/09/04 22:56:15;;;;;;;3.45;2.95;;;29.30;51.80;;;;;;10475331;28;20082;-36
2022/09/04 23:01:36;;;;;;;4.50;2.92;;;29.30;51.90;;;;;;10493077;28;20075;-35
2022/09/04 23:07:18;;;;;;;6.40;2.55;;;29.20;51.90;;;;;;10484596;28;20123;-34
2022/09/04 23:12:52;;;;;;;3.67;2.80;;;29.20;52.00;;;;;;10442660;28;20497;-32
2022/09/04 23:18:16;;;;;;;3.22;2.80;;;29.20;52.00;;;;;;10465536;28;20148;-35
2022/09/04 23:23:54;;;;;;;4.45;3.28;;;29.10;52.00;;;;;;10492735;28;20079;-35
2022/09/04 23:29:32;;;;;;;4.15;3.25;;;29.10;52.10;;;;;;10488092;28;20120;-35
2022/09/04 23:34:51;;;;;;;4.32;3.20;;;29.00;52.00;;;;;;10487139;28;20040;-35
2022/09/04 23:40:10;;;;;;;4.85;3.33;;;29.00;52.10;;;;;;10489182;28;20056;-35
2022/09/04 23:45:42;;;;;;;4.90;3.53;;;29.00;52.10;;;;;;10476869;28;20052;-34
2022/09/04 23:50:53;;;;;;;4.90;3.05;;;28.90;52.10;;;;;;10480558;28;20080;-34
2022/09/04 23:56:16;;;;;;;5.35;3.05;;;28.90;52.10;;;;;;10487260;28;20131;-34
